createdAt,value
2023-01-19T00:00:28.585Z,98611.66
2023-01-19T00:03:31.274Z,98610.22
2023-01-19T00:06:33.538Z,98607.06
2023-01-19T00:09:38.266Z,98600.78
2023-01-19T00:12:40.686Z,98599.00
2023-01-19T00:15:43.698Z,98609.59
2023-01-19T00:18:46.421Z,98601.53
2023-01-19T00:21:48.969Z,98596.97
2023-01-19T00:24:51.145Z,98595.38
2023-01-19T00:27:54.292Z,98605.63
2023-01-19T00:30:56.501Z,98599.97
2023-01-19T00:33:58.973Z,98583.44
2023-01-19T00:37:03.066Z,98588.94
2023-01-19T00:40:06.214Z,98593.81
2023-01-19T00:43:08.474Z,98593.81
2023-01-19T00:46:11.097Z,98600.59
2023-01-19T00:49:13.506Z,98599.34
2023-01-19T00:52:16.213Z,98594.44
2023-01-19T00:55:18.599Z,98591.91
2023-01-19T00:58:23.135Z,98580.88
2023-01-19T01:01:45.361Z,98579.31
2023-01-19T01:04:48.058Z,98590.31
2023-01-19T01:07:50.823Z,98581.81
2023-01-19T01:10:54.474Z,98581.94
2023-01-19T01:13:56.700Z,98573.00
2023-01-19T01:17:00.643Z,98586.38
2023-01-19T01:20:04.874Z,98580.28
2023-01-19T01:23:07.458Z,98584.03
2023-01-19T01:26:09.979Z,98598.31
2023-01-19T01:29:12.779Z,98602.56
2023-01-19T01:32:15.829Z,98587.88
2023-01-19T01:35:18.645Z,98583.19
2023-01-19T01:38:20.784Z,98586.50
2023-01-19T01:41:25.459Z,98588.25
2023-01-19T01:44:49.665Z,98597.03
2023-01-19T01:47:55.414Z,98588.19
2023-01-19T01:51:20.749Z,98587.88
2023-01-19T01:54:33.517Z,98602.81
2023-01-19T01:57:38.919Z,98607.38
2023-01-19T02:01:00.128Z,98612.41
2023-01-19T02:04:02.676Z,98624.53
2023-01-19T02:07:23.639Z,98625.66
2023-01-19T02:10:45.091Z,98636.69
2023-01-19T02:13:47.753Z,98637.16
2023-01-19T02:16:50.438Z,98620.63
2023-01-19T02:19:53.084Z,98580.81
2023-01-19T02:23:01.667Z,98565.88
2023-01-19T02:26:05.709Z,98583.03
2023-01-19T02:29:13.111Z,98599.06
2023-01-19T02:32:15.443Z,98616.41
2023-01-19T02:35:18.985Z,98643.47
2023-01-19T02:38:21.661Z,98638.41
2023-01-19T02:41:28.784Z,98616.41
2023-01-19T02:44:32.890Z,98604.06
2023-01-19T02:47:53.459Z,98595.41
2023-01-19T02:51:10.835Z,98586.28
2023-01-19T02:54:35.980Z,98575.41
2023-01-19T02:57:52.762Z,98579.19
2023-01-19T03:01:19.688Z,98600.59
2023-01-19T03:04:37.269Z,98609.09
2023-01-19T03:07:57.678Z,98611.09
2023-01-19T03:11:12.827Z,98612.97
2023-01-19T03:14:21.771Z,98606.84
2023-01-19T03:17:26.141Z,98623.00
2023-01-19T03:20:29.159Z,98635.78
2023-01-19T03:23:33.970Z,98642.69
2023-01-19T03:26:43.947Z,98645.97
2023-01-19T03:29:52.112Z,98620.97
2023-01-19T03:33:00.283Z,98598.19
2023-01-19T03:36:13.706Z,98573.63
2023-01-19T03:39:21.726Z,98555.47
2023-01-19T03:42:25.419Z,98542.25
2023-01-19T03:45:28.091Z,98540.66
2023-01-19T03:48:31.325Z,98551.84
2023-01-19T03:51:38.966Z,98567.13
2023-01-19T03:54:41.359Z,98568.37
2023-01-19T03:57:43.875Z,98566.41
2023-01-19T04:00:46.010Z,98567.19
2023-01-19T04:03:50.558Z,98590.44
2023-01-19T04:06:52.755Z,98608.38
2023-01-19T04:09:55.212Z,98615.28
2023-01-19T04:13:02.027Z,98592.72
2023-01-19T04:16:05.587Z,98626.63
2023-01-19T04:19:07.892Z,98627.31
2023-01-19T04:22:10.539Z,98625.53
2023-01-19T04:25:12.771Z,98619.09
2023-01-19T04:28:15.643Z,98615.81
2023-01-19T04:31:19.365Z,98605.78
2023-01-19T04:34:21.854Z,98599.47
2023-01-19T04:37:24.039Z,98591.47
2023-01-19T04:40:26.478Z,98597.59
2023-01-19T04:43:29.366Z,98589.13
2023-01-19T04:46:31.893Z,98582.38
2023-01-19T04:49:34.088Z,98578.50
2023-01-19T04:52:36.804Z,98565.97
2023-01-19T04:55:39.297Z,98581.84
2023-01-19T04:58:41.942Z,98600.34
2023-01-19T05:01:44.227Z,98607.56
2023-01-19T05:04:46.732Z,98613.72
2023-01-19T05:07:49.053Z,98632.13
2023-01-19T05:10:51.735Z,98631.31
2023-01-19T05:13:54.031Z,98621.13
2023-01-19T05:16:56.583Z,98603.03
2023-01-19T05:19:58.808Z,98621.72
2023-01-19T05:23:01.718Z,98651.69
2023-01-19T05:26:04.455Z,98652.63
2023-01-19T05:29:08.164Z,98665.09
2023-01-19T05:32:10.654Z,98671.31
2023-01-19T05:35:20.203Z,98669.91
2023-01-19T05:38:35.411Z,98674.56
2023-01-19T05:41:38.411Z,98679.28
2023-01-19T05:44:40.815Z,98673.28
2023-01-19T05:47:43.504Z,98656.97
2023-01-19T05:50:45.751Z,98657.25
2023-01-19T05:53:48.175Z,98653.50
2023-01-19T05:56:50.519Z,98653.50
2023-01-19T05:59:52.998Z,98635.59
2023-01-19T06:02:55.717Z,98611.72
2023-01-19T06:05:58.807Z,98624.75
2023-01-19T06:09:01.046Z,98631.94
2023-01-19T06:12:03.887Z,98640.00
2023-01-19T06:15:06.925Z,98626.22
2023-01-19T06:18:09.603Z,98616.31
2023-01-19T06:21:14.283Z,98624.09
2023-01-19T06:24:16.936Z,98624.41
2023-01-19T06:27:19.241Z,98601.72
2023-01-19T06:30:21.986Z,98591.72
2023-01-19T06:33:25.139Z,98601.13
2023-01-19T06:36:27.836Z,98616.06
2023-01-19T06:39:30.221Z,98630.69
2023-01-19T06:42:33.560Z,98650.50
2023-01-19T06:45:35.788Z,98656.72
2023-01-19T06:48:38.427Z,98665.69
2023-01-19T06:51:40.597Z,98661.28
2023-01-19T06:54:45.439Z,98653.38
2023-01-19T06:57:47.838Z,98649.59
2023-01-19T07:00:51.668Z,98644.78
2023-01-19T07:03:55.141Z,98652.31
2023-01-19T07:06:58.036Z,98641.25
2023-01-19T07:10:00.422Z,98629.78
2023-01-19T07:13:03.392Z,98628.22
2023-01-19T07:16:08.400Z,98628.13
2023-01-19T07:19:11.152Z,98629.78
2023-01-19T07:22:13.898Z,98660.69
2023-01-19T07:25:16.630Z,98674.50
2023-01-19T07:28:19.108Z,98669.31
2023-01-19T07:31:26.244Z,98665.69
2023-01-19T07:34:29.858Z,98663.62
2023-01-19T07:37:32.480Z,98663.16
2023-01-19T07:40:35.075Z,98671.03
2023-01-19T07:43:37.767Z,98660.69
2023-01-19T07:46:40.472Z,98670.66
2023-01-19T07:49:43.001Z,98674.78
2023-01-19T07:52:45.665Z,98678.69
2023-01-19T07:55:54.510Z,98690.53
2023-01-19T07:58:56.802Z,98681.22
2023-01-19T08:01:59.833Z,98705.66
2023-01-19T08:05:02.889Z,98692.75
2023-01-19T08:08:05.582Z,98693.66
2023-01-19T08:11:08.472Z,98691.78
2023-01-19T08:14:10.656Z,98684.25
2023-01-19T08:17:14.049Z,98672.16
2023-01-19T08:20:16.559Z,98671.16
2023-01-19T08:23:19.728Z,98671.09
2023-01-19T08:26:27.992Z,98662.13
2023-01-19T08:29:32.086Z,98663.59
2023-01-19T08:32:34.277Z,98678.72
2023-01-19T08:35:41.001Z,98675.28
2023-01-19T08:38:45.383Z,98677.97
2023-01-19T08:41:48.291Z,98680.97
2023-01-19T08:44:58.058Z,98677.38
2023-01-19T08:48:02.147Z,98687.41
2023-01-19T08:51:04.467Z,98690.56
2023-01-19T08:54:07.044Z,98694.78
2023-01-19T08:57:09.272Z,98689.56
2023-01-19T09:00:12.743Z,98686.62
2023-01-19T09:03:15.096Z,98679.06
2023-01-19T09:06:19.243Z,98684.59
2023-01-19T09:09:21.628Z,98674.37
2023-01-19T09:12:24.191Z,98680.19
2023-01-19T09:15:26.437Z,98672.75
2023-01-19T09:18:29.921Z,98680.16
2023-01-19T09:21:32.138Z,98697.91
2023-01-19T09:24:35.011Z,98701.56
2023-01-19T09:27:37.292Z,98691.78
2023-01-19T09:30:41.701Z,98688.78
2023-01-19T09:33:43.958Z,98697.91
2023-01-19T09:36:47.197Z,98691.34
2023-01-19T09:39:49.363Z,98689.75
2023-01-19T09:43:31.999Z,98698.09
2023-01-19T09:46:42.191Z,98687.09
2023-01-19T09:49:51.131Z,98680.69
2023-01-19T09:53:03.114Z,98698.25
2023-01-19T09:56:11.098Z,98701.25
2023-01-19T09:59:25.423Z,98701.25
2023-01-19T10:02:44.920Z,98703.97
2023-01-19T10:06:01.284Z,98691.63
2023-01-19T10:09:22.140Z,98705.19
2023-01-19T10:12:35.673Z,98712.87
2023-01-19T10:15:55.928Z,98709.25
2023-01-19T10:19:12.417Z,98717.66
2023-01-19T10:22:27.576Z,98717.94
2023-01-19T10:25:30.511Z,98703.63
2023-01-19T10:28:33.437Z,98719.19
2023-01-19T10:31:39.601Z,98713.81
2023-01-19T10:34:41.847Z,98716.62
2023-01-19T10:37:44.847Z,98717.34
2023-01-19T10:40:57.017Z,98724.44
2023-01-19T10:44:02.305Z,98736.28
2023-01-19T10:47:14.359Z,98728.78
2023-01-19T10:50:37.039Z,98733.13
2023-01-19T10:53:42.692Z,98735.75
2023-01-19T10:56:52.430Z,98736.16
2023-01-19T10:59:54.840Z,98735.56
2023-01-19T11:02:57.573Z,98735.19
2023-01-19T11:06:21.418Z,98734.69
2023-01-19T11:09:23.928Z,98736.19
2023-01-19T11:12:26.128Z,98734.59
2023-01-19T11:15:35.905Z,98732.47
2023-01-19T11:18:39.864Z,98726.38
2023-01-19T11:21:42.400Z,98720.63
2023-01-19T11:24:44.634Z,98718.72
2023-01-19T11:27:51.770Z,98724.06
2023-01-19T11:31:02.287Z,98722.59
2023-01-19T11:34:21.917Z,98722.22
2023-01-19T11:37:30.895Z,98729.13
2023-01-19T11:40:35.727Z,98731.72
2023-01-19T11:43:48.684Z,98736.25
2023-01-19T11:47:00.987Z,98728.22
2023-01-19T11:50:23.521Z,98732.88
2023-01-19T11:53:33.165Z,98746.31
2023-01-19T11:56:35.342Z,98737.69
2023-01-19T11:59:38.283Z,98746.13
2023-01-19T12:02:46.152Z,98750.56
2023-01-19T12:05:55.336Z,98752.63
2023-01-19T12:09:00.369Z,98752.47
2023-01-19T12:12:10.481Z,98762.91
2023-01-19T12:15:35.022Z,98766.66
2023-01-19T12:19:02.632Z,98766.41
2023-01-19T12:22:06.116Z,98771.16
2023-01-19T12:25:34.998Z,98777.97
2023-01-19T12:28:41.407Z,98794.28
2023-01-19T12:31:44.287Z,98787.09
2023-01-19T12:34:55.812Z,98798.94
2023-01-19T12:38:00.407Z,98805.97
2023-01-19T12:41:17.751Z,98796.87
2023-01-19T12:44:23.987Z,98797.94
2023-01-19T12:47:27.160Z,98803.13
2023-01-19T12:50:37.220Z,98814.88
2023-01-19T12:53:39.790Z,98817.75
2023-01-19T12:56:44.975Z,98815.78
2023-01-19T12:59:47.489Z,98823.09
2023-01-19T13:02:51.865Z,98830.31
2023-01-19T13:05:56.767Z,98823.69
2023-01-19T13:09:00.591Z,98833.81
2023-01-19T13:12:32.327Z,98855.25
2023-01-19T13:15:36.376Z,98873.56
2023-01-19T13:18:41.408Z,98870.88
2023-01-19T13:21:48.538Z,98870.97
2023-01-19T13:25:13.849Z,98893.03
2023-01-19T13:28:19.234Z,98892.34
2023-01-19T13:31:22.780Z,98898.59
2023-01-19T13:34:28.022Z,98895.41
2023-01-19T13:37:40.441Z,98902.16
2023-01-19T13:40:44.327Z,98908.84
2023-01-19T13:43:48.292Z,98910.56
2023-01-19T13:46:52.492Z,98926.37
2023-01-19T13:49:58.979Z,98936.09
2023-01-19T13:53:02.777Z,98936.16
2023-01-19T13:56:06.343Z,98934.69
2023-01-19T13:59:12.970Z,98950.38
2023-01-19T14:02:17.895Z,98951.88
2023-01-19T14:05:34.082Z,98947.56
2023-01-19T14:08:36.580Z,98952.28
2023-01-19T14:11:39.276Z,98941.41
2023-01-19T14:14:43.402Z,98924.31
2023-01-19T14:18:21.004Z,98924.41
2023-01-19T14:21:23.234Z,98931.31
2023-01-19T14:24:29.745Z,98930.53
2023-01-19T14:27:32.113Z,98942.50
2023-01-19T14:30:36.751Z,98938.59
2023-01-19T14:33:46.022Z,98944.44
2023-01-19T14:36:51.579Z,98954.41
2023-01-19T14:39:57.065Z,98948.06
2023-01-19T14:43:06.258Z,98952.06
2023-01-19T14:46:14.739Z,98962.75
2023-01-19T14:49:30.421Z,98970.34
2023-01-19T14:52:38.178Z,98978.38
2023-01-19T14:55:46.457Z,98986.44
2023-01-19T14:58:48.757Z,98999.28
2023-01-19T15:01:51.454Z,99007.81
2023-01-19T15:04:55.378Z,99042.16
2023-01-19T15:08:00.571Z,99054.84
2023-01-19T15:11:29.304Z,99060.47
2023-01-19T15:14:32.078Z,99048.00
2023-01-19T15:17:35.183Z,99030.53
2023-01-19T15:20:37.682Z,99021.47
2023-01-19T15:23:40.260Z,99038.69
2023-01-19T15:26:43.251Z,99019.84
2023-01-19T15:29:46.090Z,99037.47
2023-01-19T15:32:48.861Z,99047.44
2023-01-19T15:35:51.992Z,99047.38
2023-01-19T15:38:55.803Z,99061.22
2023-01-19T15:41:58.324Z,99064.50
2023-01-19T15:45:00.825Z,99063.22
2023-01-19T15:48:11.095Z,99062.78
2023-01-19T15:51:15.667Z,99073.75
2023-01-19T15:54:18.619Z,99066.91
2023-01-19T15:57:21.077Z,99081.91
2023-01-19T16:00:23.465Z,99080.88
2023-01-19T16:03:26.366Z,99110.47
2023-01-19T16:06:29.751Z,99113.72
2023-01-19T16:09:32.191Z,99101.00
2023-01-19T16:12:34.416Z,99107.44
2023-01-19T16:15:38.270Z,99123.53
2023-01-19T16:18:40.464Z,99133.59
2023-01-19T16:21:43.980Z,99150.47
2023-01-19T16:24:46.095Z,99150.56
2023-01-19T16:27:48.489Z,99153.84
2023-01-19T16:30:51.712Z,99168.81
2023-01-19T16:33:54.340Z,99175.19
2023-01-19T16:36:56.560Z,99184.28
2023-01-19T16:39:59.052Z,99187.88
2023-01-19T16:43:01.254Z,99201.81
2023-01-19T16:46:04.409Z,99211.28
2023-01-19T16:49:13.496Z,99219.75
2023-01-19T16:52:16.088Z,99225.50
2023-01-19T16:55:18.357Z,99229.34
2023-01-19T16:58:20.857Z,99229.44
2023-01-19T17:01:24.700Z,99226.84
2023-01-19T17:04:27.356Z,99225.53
2023-01-19T17:07:29.545Z,99233.22
2023-01-19T17:10:36.347Z,99244.00
2023-01-19T17:13:39.415Z,99247.53
2023-01-19T17:16:43.343Z,99266.03
2023-01-19T17:19:45.619Z,99258.75
2023-01-19T17:22:48.170Z,99267.97
2023-01-19T17:25:54.382Z,99279.69
2023-01-19T17:29:07.981Z,99275.91
2023-01-19T17:32:10.138Z,99275.00
2023-01-19T17:35:12.578Z,99282.41
2023-01-19T17:38:14.951Z,99272.34
2023-01-19T17:41:23.764Z,99276.06
2023-01-19T17:44:25.969Z,99276.16
2023-01-19T17:47:28.372Z,99272.44
2023-01-19T17:50:32.521Z,99264.81
2023-01-19T17:53:39.628Z,99278.41
2023-01-19T17:56:41.835Z,99283.53
2023-01-19T17:59:44.410Z,99289.63
2023-01-19T18:02:49.852Z,99301.09
2023-01-19T18:05:55.635Z,99299.03
2023-01-19T18:08:59.374Z,99302.66
2023-01-19T18:12:01.894Z,99294.91
2023-01-19T18:15:06.202Z,99293.09
2023-01-19T18:18:08.626Z,99298.16
2023-01-19T18:21:13.821Z,99305.88
2023-01-19T18:24:16.424Z,99301.50
2023-01-19T18:27:18.812Z,99308.25
2023-01-19T18:30:22.394Z,99314.19
2023-01-19T18:33:25.429Z,99313.19
2023-01-19T18:36:27.962Z,99316.72
2023-01-19T18:39:31.087Z,99322.22
2023-01-19T18:42:34.239Z,99333.84
2023-01-19T18:45:38.162Z,99322.06
2023-01-19T18:48:40.609Z,99315.00
2023-01-19T18:51:42.766Z,99319.88
2023-01-19T18:54:45.197Z,99315.94
2023-01-19T18:57:47.435Z,99310.94
2023-01-19T19:00:50.432Z,99320.63
2023-01-19T19:03:54.100Z,99315.75
2023-01-19T19:06:56.796Z,99313.16
2023-01-19T19:09:58.994Z,99319.81
2023-01-19T19:13:01.916Z,99323.50
2023-01-19T19:16:08.653Z,99338.81
2023-01-19T19:19:15.156Z,99337.41
2023-01-19T19:22:17.282Z,99339.34
2023-01-19T19:25:19.767Z,99349.69
2023-01-19T19:28:21.942Z,99352.78
2023-01-19T19:31:26.843Z,99353.31
2023-01-19T19:34:29.184Z,99369.97
2023-01-19T19:37:32.004Z,99367.91
2023-01-19T19:40:34.130Z,99371.09
2023-01-19T19:43:37.465Z,99377.50
2023-01-19T19:46:41.194Z,99392.69
2023-01-19T19:49:43.681Z,99392.44
2023-01-19T19:52:45.946Z,99395.12
2023-01-19T19:55:59.484Z,99389.84
2023-01-19T19:59:01.676Z,99379.91
2023-01-19T20:02:06.068Z,99399.13
2023-01-19T20:05:08.944Z,99392.53
2023-01-19T20:08:11.345Z,99394.94
2023-01-19T20:11:17.294Z,99398.09
2023-01-19T20:14:20.167Z,99396.56
2023-01-19T20:17:23.211Z,99407.47
2023-01-19T20:20:25.622Z,99394.13
2023-01-19T20:23:28.053Z,99385.03
2023-01-19T20:26:33.649Z,99397.78
2023-01-19T20:29:36.227Z,99401.72
2023-01-19T20:32:41.531Z,99391.91
2023-01-19T20:35:44.134Z,99403.12
2023-01-19T20:38:46.305Z,99399.41
2023-01-19T20:41:51.215Z,99397.78
2023-01-19T20:44:55.599Z,99411.34
2023-01-19T20:47:58.106Z,99413.44
2023-01-19T20:51:09.572Z,99413.91
2023-01-19T20:54:13.781Z,99418.50
2023-01-19T20:57:15.991Z,99407.78
2023-01-19T21:00:18.814Z,99401.94
2023-01-19T21:03:21.026Z,99393.16
2023-01-19T21:06:23.695Z,99414.22
2023-01-19T21:09:25.889Z,99412.13
2023-01-19T21:12:28.432Z,99425.69
2023-01-19T21:15:30.560Z,99419.56
2023-01-19T21:18:33.187Z,99424.06
2023-01-19T21:21:35.375Z,99429.16
2023-01-19T21:24:37.876Z,99433.97
2023-01-19T21:27:40.165Z,99426.19
2023-01-19T21:30:42.697Z,99425.22
2023-01-19T21:33:45.135Z,99434.00
2023-01-19T21:36:47.581Z,99444.06
2023-01-19T21:39:49.700Z,99457.69
2023-01-19T21:42:52.855Z,99470.72
2023-01-19T21:45:55.131Z,99472.31
2023-01-19T21:49:03.126Z,99480.34
2023-01-19T21:52:05.504Z,99496.88
2023-01-19T21:55:08.493Z,99535.22
2023-01-19T21:58:10.767Z,99550.19
2023-01-19T22:01:14.091Z,99552.59
2023-01-19T22:04:16.633Z,99547.53
2023-01-19T22:07:18.831Z,99531.03
2023-01-19T22:10:21.579Z,99513.97
2023-01-19T22:13:23.821Z,99501.72
2023-01-19T22:16:28.222Z,99509.12
2023-01-19T22:19:30.519Z,99508.63
2023-01-19T22:22:33.323Z,99516.03
2023-01-19T22:25:35.522Z,99517.62
2023-01-19T22:28:38.215Z,99507.03
2023-01-19T22:31:40.783Z,99509.91
2023-01-19T22:34:43.291Z,99506.47
2023-01-19T22:37:45.438Z,99507.56
2023-01-19T22:40:47.933Z,99516.91
2023-01-19T22:43:53.524Z,99512.66
2023-01-19T22:46:56.314Z,99504.41
2023-01-19T22:49:58.479Z,99506.00
2023-01-19T22:53:00.966Z,99497.50
2023-01-19T22:56:14.776Z,99500.41
2023-01-19T22:59:17.204Z,99504.91
2023-01-19T23:02:20.914Z,99505.22
2023-01-19T23:05:23.630Z,99493.41
2023-01-19T23:08:25.835Z,99485.13
2023-01-19T23:11:35.604Z,99477.69
2023-01-19T23:14:38.144Z,99468.37
2023-01-19T23:17:43.395Z,99463.91
2023-01-19T23:20:45.509Z,99451.84
2023-01-19T23:23:48.212Z,99457.44
2023-01-19T23:26:50.920Z,99454.56
2023-01-19T23:29:53.474Z,99455.59
2023-01-19T23:32:55.691Z,99459.34
2023-01-19T23:35:58.134Z,99475.37
2023-01-19T23:39:04.156Z,99467.16
2023-01-19T23:42:08.202Z,99477.25
2023-01-19T23:45:10.788Z,99491.66
2023-01-19T23:48:13.393Z,99494.31
2023-01-19T23:51:21.751Z,99493.00
2023-01-19T23:54:24.319Z,99493.81
2023-01-19T23:57:26.818Z,99494.09
